sensor_id;sensor_type;location;lat;lon;timestamp;pressure;altitude;pressure_sealevel;temperature;humidity
40920;BME280;26652;50.280;19.026;2023-08-31T00:02:06;63883.53;;;-141.89;100.00
40920;BME280;26652;50.280;19.026;2023-08-31T00:05:05;63883.53;;;-141.89;100.00
40920;BME280;26652;50.280;19.026;2023-08-31T00:08:05;63883.53;;;-141.89;100.00
40920;BME280;26652;50.280;19.026;2023-08-31T00:11:05;63883.53;;;-141.89;100.00
40920;BME280;26652;50.280;19.026;2023-08-31T00:14:05;63883.53;;;-141.89;100.00
40920;BME280;26652;50.280;19.026;2023-08-31T00:17:04;63883.53;;;-141.89;100.00
40920;BME280;26652;50.280;19.026;2023-08-31T00:20:04;63883.53;;;-141.89;100.00
40920;BME280;26652;50.280;19.026;2023-08-31T00:23:05;63883.53;;;-141.89;100.00
40920;BME280;26652;50.280;19.026;2023-08-31T00:26:04;63883.53;;;-141.89;100.00
40920;BME280;26652;50.280;19.026;2023-08-31T00:29:05;63883.53;;;-141.89;100.00
40920;BME280;26652;50.280;19.026;2023-08-31T00:32:04;63883.53;;;-141.89;100.00
40920;BME280;26652;50.280;19.026;2023-08-31T00:35:04;63883.53;;;-141.89;100.00
40920;BME280;26652;50.280;19.026;2023-08-31T00:38:03;63883.53;;;-141.89;100.00
40920;BME280;26652;50.280;19.026;2023-08-31T00:41:03;63883.53;;;-141.89;100.00
40920;BME280;26652;50.280;19.026;2023-08-31T00:44:03;63883.53;;;-141.89;100.00
40920;BME280;26652;50.280;19.026;2023-08-31T00:47:04;63883.53;;;-141.89;100.00
40920;BME280;26652;50.280;19.026;2023-08-31T00:50:03;63883.53;;;-141.89;100.00
40920;BME280;26652;50.280;19.026;2023-08-31T00:53:06;63883.53;;;-141.89;100.00
40920;BME280;26652;50.280;19.026;2023-08-31T00:56:07;63883.53;;;-141.89;100.00
40920;BME280;26652;50.280;19.026;2023-08-31T00:59:07;63883.53;;;-141.89;100.00
40920;BME280;26652;50.280;19.026;2023-08-31T01:02:11;63883.53;;;-141.89;100.00
40920;BME280;26652;50.280;19.026;2023-08-31T01:05:22;63883.53;;;-141.89;100.00
40920;BME280;26652;50.280;19.026;2023-08-31T01:08:47;63883.53;;;-141.89;100.00
40920;BME280;26652;50.280;19.026;2023-08-31T01:12:00;63883.53;;;-141.89;100.00
40920;BME280;26652;50.280;19.026;2023-08-31T01:15:12;63883.53;;;-141.89;100.00
40920;BME280;26652;50.280;19.026;2023-08-31T01:18:14;63883.53;;;-141.89;100.00
40920;BME280;26652;50.280;19.026;2023-08-31T01:21:20;63883.53;;;-141.89;100.00
40920;BME280;26652;50.280;19.026;2023-08-31T01:24:23;63883.53;;;-141.89;100.00
40920;BME280;26652;50.280;19.026;2023-08-31T01:27:23;63883.53;;;-141.89;100.00
40920;BME280;26652;50.280;19.026;2023-08-31T01:30:22;63883.53;;;-141.89;100.00
40920;BME280;26652;50.280;19.026;2023-08-31T01:33:31;63883.53;;;-141.89;100.00
40920;BME280;26652;50.280;19.026;2023-08-31T01:36:36;63883.53;;;-141.89;100.00
40920;BME280;26652;50.280;19.026;2023-08-31T01:39:44;63883.53;;;-141.89;100.00
40920;BME280;26652;50.280;19.026;2023-08-31T01:42:49;63883.53;;;-141.89;100.00
40920;BME280;26652;50.280;19.026;2023-08-31T01:45:49;63883.53;;;-141.89;100.00
40920;BME280;26652;50.280;19.026;2023-08-31T01:48:49;63883.53;;;-141.89;100.00
40920;BME280;26652;50.280;19.026;2023-08-31T01:51:48;63883.53;;;-141.89;100.00
40920;BME280;26652;50.280;19.026;2023-08-31T01:54:48;63883.53;;;-141.89;100.00
40920;BME280;26652;50.280;19.026;2023-08-31T01:57:47;63883.53;;;-141.89;100.00
40920;BME280;26652;50.280;19.026;2023-08-31T02:00:46;63883.53;;;-141.89;100.00
40920;BME280;26652;50.280;19.026;2023-08-31T02:03:46;63883.53;;;-141.89;100.00
40920;BME280;26652;50.280;19.026;2023-08-31T02:06:46;63883.53;;;-141.89;100.00
40920;BME280;26652;50.280;19.026;2023-08-31T02:09:45;63883.53;;;-141.89;100.00
40920;BME280;26652;50.280;19.026;2023-08-31T02:12:44;63883.53;;;-141.89;100.00
40920;BME280;26652;50.280;19.026;2023-08-31T02:15:43;63883.53;;;-141.89;100.00
40920;BME280;26652;50.280;19.026;2023-08-31T02:18:42;63883.53;;;-141.89;100.00
40920;BME280;26652;50.280;19.026;2023-08-31T02:21:42;63883.53;;;-141.89;100.00
40920;BME280;26652;50.280;19.026;2023-08-31T02:24:41;63883.53;;;-141.89;100.00
40920;BME280;26652;50.280;19.026;2023-08-31T02:27:40;63883.53;;;-141.89;100.00
40920;BME280;26652;50.280;19.026;2023-08-31T02:30:39;63883.53;;;-141.89;100.00
40920;BME280;26652;50.280;19.026;2023-08-31T02:33:38;63883.53;;;-141.89;100.00
40920;BME280;26652;50.280;19.026;2023-08-31T02:36:37;63883.53;;;-141.89;100.00
40920;BME280;26652;50.280;19.026;2023-08-31T02:39:36;63883.53;;;-141.89;100.00
40920;BME280;26652;50.280;19.026;2023-08-31T02:42:36;63883.53;;;-141.89;100.00
40920;BME280;26652;50.280;19.026;2023-08-31T02:45:35;63883.53;;;-141.89;100.00
40920;BME280;26652;50.280;19.026;2023-08-31T02:48:35;63883.53;;;-141.89;100.00
40920;BME280;26652;50.280;19.026;2023-08-31T02:51:34;63883.53;;;-141.89;100.00
40920;BME280;26652;50.280;19.026;2023-08-31T02:54:33;63883.53;;;-141.89;100.00
40920;BME280;26652;50.280;19.026;2023-08-31T02:57:32;63883.53;;;-141.89;100.00
40920;BME280;26652;50.280;19.026;2023-08-31T03:00:31;63883.53;;;-141.89;100.00
40920;BME280;26652;50.280;19.026;2023-08-31T03:03:32;63883.53;;;-141.89;100.00
40920;BME280;26652;50.280;19.026;2023-08-31T03:06:34;63883.53;;;-141.89;100.00
40920;BME280;26652;50.280;19.026;2023-08-31T03:09:34;63883.53;;;-141.89;100.00
40920;BME280;26652;50.280;19.026;2023-08-31T03:12:33;63883.53;;;-141.89;100.00
40920;BME280;26652;50.280;19.026;2023-08-31T03:15:32;63883.53;;;-141.89;100.00
40920;BME280;26652;50.280;19.026;2023-08-31T03:18:33;63883.53;;;-141.89;100.00
40920;BME280;26652;50.280;19.026;2023-08-31T03:21:32;63883.53;;;-141.89;100.00
40920;BME280;26652;50.280;19.026;2023-08-31T03:24:32;63883.53;;;-141.89;100.00
40920;BME280;26652;50.280;19.026;2023-08-31T03:27:31;63883.53;;;-141.89;100.00
40920;BME280;26652;50.280;19.026;2023-08-31T03:30:31;63883.53;;;-141.89;100.00
40920;BME280;26652;50.280;19.026;2023-08-31T03:33:30;63883.53;;;-141.89;100.00
40920;BME280;26652;50.280;19.026;2023-08-31T03:36:30;63883.53;;;-141.89;100.00
40920;BME280;26652;50.280;19.026;2023-08-31T03:39:29;63883.53;;;-141.89;100.00
40920;BME280;26652;50.280;19.026;2023-08-31T03:42:29;63883.53;;;-141.89;100.00
40920;BME280;26652;50.280;19.026;2023-08-31T03:45:28;63883.53;;;-141.89;100.00
40920;BME280;26652;50.280;19.026;2023-08-31T03:48:28;63883.53;;;-141.89;100.00
40920;BME280;26652;50.280;19.026;2023-08-31T03:51:27;63883.53;;;-141.89;100.00
40920;BME280;26652;50.280;19.026;2023-08-31T03:54:28;63883.53;;;-141.89;100.00
40920;BME280;26652;50.280;19.026;2023-08-31T03:57:28;63883.53;;;-141.89;100.00
40920;BME280;26652;50.280;19.026;2023-08-31T04:00:27;63883.53;;;-141.89;100.00
40920;BME280;26652;50.280;19.026;2023-08-31T04:03:27;63883.53;;;-141.89;100.00
40920;BME280;26652;50.280;19.026;2023-08-31T04:06:30;63883.53;;;-141.89;100.00
40920;BME280;26652;50.280;19.026;2023-08-31T04:09:29;63883.53;;;-141.89;100.00
40920;BME280;26652;50.280;19.026;2023-08-31T04:12:29;63883.53;;;-141.89;100.00
40920;BME280;26652;50.280;19.026;2023-08-31T04:15:29;63883.53;;;-141.89;100.00
40920;BME280;26652;50.280;19.026;2023-08-31T04:18:30;63883.53;;;-141.89;100.00
40920;BME280;26652;50.280;19.026;2023-08-31T04:21:31;63883.53;;;-141.89;100.00
40920;BME280;26652;50.280;19.026;2023-08-31T04:24:31;63883.53;;;-141.89;100.00
40920;BME280;26652;50.280;19.026;2023-08-31T04:27:34;63883.53;;;-141.89;100.00
40920;BME280;26652;50.280;19.026;2023-08-31T04:30:36;63883.53;;;-141.89;100.00
40920;BME280;26652;50.280;19.026;2023-08-31T04:33:36;63883.53;;;-141.89;100.00
40920;BME280;26652;50.280;19.026;2023-08-31T04:36:39;63883.53;;;-141.89;100.00
40920;BME280;26652;50.280;19.026;2023-08-31T04:39:38;63883.53;;;-141.89;100.00
40920;BME280;26652;50.280;19.026;2023-08-31T04:42:38;63883.53;;;-141.89;100.00
40920;BME280;26652;50.280;19.026;2023-08-31T04:45:37;63883.53;;;-141.89;100.00
40920;BME280;26652;50.280;19.026;2023-08-31T04:48:37;63883.53;;;-141.89;100.00
40920;BME280;26652;50.280;19.026;2023-08-31T04:51:38;63883.53;;;-141.89;100.00
40920;BME280;26652;50.280;19.026;2023-08-31T04:54:39;63883.53;;;-141.89;100.00
40920;BME280;26652;50.280;19.026;2023-08-31T04:57:38;63883.53;;;-141.89;100.00
40920;BME280;26652;50.280;19.026;2023-08-31T05:00:40;63883.53;;;-141.89;100.00
40920;BME280;26652;50.280;19.026;2023-08-31T05:03:39;63883.53;;;-141.89;100.00
40920;BME280;26652;50.280;19.026;2023-08-31T05:06:39;63883.53;;;-141.89;100.00
40920;BME280;26652;50.280;19.026;2023-08-31T05:09:38;63883.53;;;-141.89;100.00
40920;BME280;26652;50.280;19.026;2023-08-31T05:12:37;63883.53;;;-141.89;100.00
40920;BME280;26652;50.280;19.026;2023-08-31T05:15:36;63883.53;;;-141.89;100.00
40920;BME280;26652;50.280;19.026;2023-08-31T05:18:37;63883.53;;;-141.89;100.00
40920;BME280;26652;50.280;19.026;2023-08-31T05:21:36;63883.53;;;-141.89;100.00
40920;BME280;26652;50.280;19.026;2023-08-31T05:24:36;63883.53;;;-141.89;100.00
40920;BME280;26652;50.280;19.026;2023-08-31T05:27:35;63883.53;;;-141.89;100.00
40920;BME280;26652;50.280;19.026;2023-08-31T05:30:34;63883.53;;;-141.89;100.00
40920;BME280;26652;50.280;19.026;2023-08-31T05:33:33;63883.53;;;-141.89;100.00
40920;BME280;26652;50.280;19.026;2023-08-31T05:36:34;63883.53;;;-141.89;100.00
40920;BME280;26652;50.280;19.026;2023-08-31T05:39:34;63883.53;;;-141.89;100.00
40920;BME280;26652;50.280;19.026;2023-08-31T05:42:33;63883.53;;;-141.89;100.00
40920;BME280;26652;50.280;19.026;2023-08-31T05:45:33;63883.53;;;-141.89;100.00
40920;BME280;26652;50.280;19.026;2023-08-31T05:48:32;63883.53;;;-141.89;100.00
40920;BME280;26652;50.280;19.026;2023-08-31T05:51:32;63883.53;;;-141.89;100.00
40920;BME280;26652;50.280;19.026;2023-08-31T05:54:31;63883.53;;;-141.89;100.00
40920;BME280;26652;50.280;19.026;2023-08-31T05:57:30;63883.53;;;-141.89;100.00
40920;BME280;26652;50.280;19.026;2023-08-31T06:00:29;63883.53;;;-141.89;100.00
40920;BME280;26652;50.280;19.026;2023-08-31T06:03:28;63883.53;;;-141.89;100.00
40920;BME280;26652;50.280;19.026;2023-08-31T06:06:28;63883.53;;;-141.89;100.00
40920;BME280;26652;50.280;19.026;2023-08-31T06:09:27;63883.53;;;-141.89;100.00
40920;BME280;26652;50.280;19.026;2023-08-31T06:12:27;63883.53;;;-141.89;100.00
40920;BME280;26652;50.280;19.026;2023-08-31T06:15:26;63883.53;;;-141.89;100.00
40920;BME280;26652;50.280;19.026;2023-08-31T06:18:27;63883.53;;;-141.89;100.00
40920;BME280;26652;50.280;19.026;2023-08-31T06:21:26;63883.53;;;-141.89;100.00
40920;BME280;26652;50.280;19.026;2023-08-31T06:24:25;63883.53;;;-141.89;100.00
40920;BME280;26652;50.280;19.026;2023-08-31T06:27:24;63883.53;;;-141.89;100.00
40920;BME280;26652;50.280;19.026;2023-08-31T06:30:24;63883.53;;;-141.89;100.00
40920;BME280;26652;50.280;19.026;2023-08-31T06:33:23;63883.53;;;-141.89;100.00
40920;BME280;26652;50.280;19.026;2023-08-31T06:36:23;63883.53;;;-141.89;100.00
40920;BME280;26652;50.280;19.026;2023-08-31T06:39:22;63883.53;;;-141.89;100.00
40920;BME280;26652;50.280;19.026;2023-08-31T06:42:21;63883.53;;;-141.89;100.00
40920;BME280;26652;50.280;19.026;2023-08-31T06:45:20;63883.53;;;-141.89;100.00
40920;BME280;26652;50.280;19.026;2023-08-31T06:48:21;63883.53;;;-141.89;100.00
40920;BME280;26652;50.280;19.026;2023-08-31T06:51:20;63883.53;;;-141.89;100.00
40920;BME280;26652;50.280;19.026;2023-08-31T06:54:20;63883.53;;;-141.89;100.00
40920;BME280;26652;50.280;19.026;2023-08-31T06:57:19;63883.53;;;-141.89;100.00
40920;BME280;26652;50.280;19.026;2023-08-31T07:00:18;63883.53;;;-141.89;100.00
40920;BME280;26652;50.280;19.026;2023-08-31T07:03:18;63883.53;;;-141.89;100.00
40920;BME280;26652;50.280;19.026;2023-08-31T07:06:17;63883.53;;;-141.89;100.00
40920;BME280;26652;50.280;19.026;2023-08-31T07:09:16;63883.53;;;-141.89;100.00
40920;BME280;26652;50.280;19.026;2023-08-31T07:12:19;63883.53;;;-141.89;100.00
40920;BME280;26652;50.280;19.026;2023-08-31T07:15:18;63883.53;;;-141.89;100.00
40920;BME280;26652;50.280;19.026;2023-08-31T07:18:18;63883.53;;;-141.89;100.00
40920;BME280;26652;50.280;19.026;2023-08-31T07:21:17;63883.53;;;-141.89;100.00
40920;BME280;26652;50.280;19.026;2023-08-31T07:24:16;63883.53;;;-141.89;100.00
40920;BME280;26652;50.280;19.026;2023-08-31T07:27:15;63883.53;;;-141.89;100.00
40920;BME280;26652;50.280;19.026;2023-08-31T07:30:15;63883.53;;;-141.89;100.00
40920;BME280;26652;50.280;19.026;2023-08-31T07:33:14;63883.53;;;-141.89;100.00
40920;BME280;26652;50.280;19.026;2023-08-31T07:36:13;63883.53;;;-141.89;100.00
40920;BME280;26652;50.280;19.026;2023-08-31T07:39:14;63883.53;;;-141.89;100.00
40920;BME280;26652;50.280;19.026;2023-08-31T07:42:13;63883.53;;;-141.89;100.00
40920;BME280;26652;50.280;19.026;2023-08-31T07:45:15;63883.53;;;-141.89;100.00
40920;BME280;26652;50.280;19.026;2023-08-31T07:48:14;63883.53;;;-141.89;100.00
40920;BME280;26652;50.280;19.026;2023-08-31T07:51:13;63883.53;;;-141.89;100.00
40920;BME280;26652;50.280;19.026;2023-08-31T07:54:19;63883.53;;;-141.89;100.00
40920;BME280;26652;50.280;19.026;2023-08-31T07:57:21;63883.53;;;-141.89;100.00
40920;BME280;26652;50.280;19.026;2023-08-31T08:00:23;63883.53;;;-141.89;100.00
40920;BME280;26652;50.280;19.026;2023-08-31T08:03:22;63883.53;;;-141.89;100.00
40920;BME280;26652;50.280;19.026;2023-08-31T08:06:22;63883.53;;;-141.89;100.00
40920;BME280;26652;50.280;19.026;2023-08-31T08:09:21;63883.53;;;-141.89;100.00
40920;BME280;26652;50.280;19.026;2023-08-31T08:12:21;63883.53;;;-141.89;100.00
40920;BME280;26652;50.280;19.026;2023-08-31T08:15:20;63883.53;;;-141.89;100.00
40920;BME280;26652;50.280;19.026;2023-08-31T08:18:23;63883.53;;;-141.89;100.00
40920;BME280;26652;50.280;19.026;2023-08-31T08:21:22;63883.53;;;-141.89;100.00
40920;BME280;26652;50.280;19.026;2023-08-31T08:24:21;63883.53;;;-141.89;100.00
40920;BME280;26652;50.280;19.026;2023-08-31T08:27:20;63883.53;;;-141.89;100.00
40920;BME280;26652;50.280;19.026;2023-08-31T08:30:20;63883.53;;;-141.89;100.00
40920;BME280;26652;50.280;19.026;2023-08-31T08:33:19;63883.53;;;-141.89;100.00
40920;BME280;26652;50.280;19.026;2023-08-31T08:36:21;63883.53;;;-141.89;100.00
40920;BME280;26652;50.280;19.026;2023-08-31T08:39:20;63883.53;;;-141.89;100.00
40920;BME280;26652;50.280;19.026;2023-08-31T08:42:22;63883.53;;;-141.89;100.00
40920;BME280;26652;50.280;19.026;2023-08-31T08:45:30;63883.53;;;-141.89;100.00
40920;BME280;26652;50.280;19.026;2023-08-31T08:48:35;63883.53;;;-141.89;100.00
40920;BME280;26652;50.280;19.026;2023-08-31T08:51:35;63883.53;;;-141.89;100.00
40920;BME280;26652;50.280;19.026;2023-08-31T08:54:37;63883.53;;;-141.89;100.00
40920;BME280;26652;50.280;19.026;2023-08-31T08:57:40;63883.53;;;-141.89;100.00
40920;BME280;26652;50.280;19.026;2023-08-31T09:00:43;63883.53;;;-141.89;100.00
40920;BME280;26652;50.280;19.026;2023-08-31T09:04:12;63883.53;;;-141.89;100.00
40920;BME280;26652;50.280;19.026;2023-08-31T09:07:13;63883.53;;;-141.89;100.00
40920;BME280;26652;50.280;19.026;2023-08-31T09:10:12;63883.53;;;-141.89;100.00
40920;BME280;26652;50.280;19.026;2023-08-31T09:13:14;63883.53;;;-141.89;100.00
40920;BME280;26652;50.280;19.026;2023-08-31T09:16:25;63883.53;;;-141.89;100.00
40920;BME280;26652;50.280;19.026;2023-08-31T09:19:29;63883.53;;;-141.89;100.00
40920;BME280;26652;50.280;19.026;2023-08-31T09:22:34;63883.53;;;-141.89;100.00
40920;BME280;26652;50.280;19.026;2023-08-31T09:25:43;63883.53;;;-141.89;100.00
40920;BME280;26652;50.280;19.026;2023-08-31T09:28:43;63883.53;;;-141.89;100.00
40920;BME280;26652;50.280;19.026;2023-08-31T09:31:47;63883.53;;;-141.89;100.00
40920;BME280;26652;50.280;19.026;2023-08-31T09:34:51;63883.53;;;-141.89;100.00
40920;BME280;26652;50.280;19.026;2023-08-31T09:37:55;63883.53;;;-141.89;100.00
40920;BME280;26652;50.280;19.026;2023-08-31T09:41:14;63883.53;;;-141.89;100.00
40920;BME280;26652;50.280;19.026;2023-08-31T09:45:11;63883.53;;;-141.89;100.00
40920;BME280;26652;50.280;19.026;2023-08-31T09:53:50;63883.53;;;-141.89;100.00
40920;BME280;26652;50.280;19.026;2023-08-31T10:11:12;63883.53;;;-141.89;100.00
40920;BME280;26652;50.280;19.026;2023-08-31T10:14:21;63883.53;;;-141.89;100.00
40920;BME280;26652;50.280;19.026;2023-08-31T10:17:59;63883.53;;;-141.89;100.00
40920;BME280;26652;50.280;19.026;2023-08-31T10:21:02;63883.53;;;-141.89;100.00
40920;BME280;26652;50.280;19.026;2023-08-31T10:24:39;63883.53;;;-141.89;100.00
40920;BME280;26652;50.280;19.026;2023-08-31T10:27:52;63883.53;;;-141.89;100.00
40920;BME280;26652;50.280;19.026;2023-08-31T10:31:35;63883.53;;;-141.89;100.00
40920;BME280;26652;50.280;19.026;2023-08-31T10:34:42;63883.53;;;-141.89;100.00
40920;BME280;26652;50.280;19.026;2023-08-31T10:38:12;63883.53;;;-141.89;100.00
40920;BME280;26652;50.280;19.026;2023-08-31T10:41:21;63883.53;;;-141.89;100.00
40920;BME280;26652;50.280;19.026;2023-08-31T10:44:23;63883.53;;;-141.89;100.00
40920;BME280;26652;50.280;19.026;2023-08-31T10:47:40;63883.53;;;-141.89;100.00
40920;BME280;26652;50.280;19.026;2023-08-31T10:50:51;63883.53;;;-141.89;100.00
40920;BME280;26652;50.280;19.026;2023-08-31T10:57:55;63883.53;;;-141.89;100.00
40920;BME280;26652;50.280;19.026;2023-08-31T11:05:30;63883.53;;;-141.89;100.00
40920;BME280;26652;50.280;19.026;2023-08-31T11:30:38;63883.53;;;-141.89;100.00
40920;BME280;26652;50.280;19.026;2023-08-31T11:34:12;63883.53;;;-141.89;100.00
40920;BME280;26652;50.280;19.026;2023-08-31T11:55:48;63883.53;;;-141.89;100.00
40920;BME280;26652;50.280;19.026;2023-08-31T12:03:42;63883.53;;;-141.89;100.00
40920;BME280;26652;50.280;19.026;2023-08-31T12:19:14;63883.53;;;-141.89;100.00
40920;BME280;26652;50.280;19.026;2023-08-31T12:22:33;63883.53;;;-141.89;100.00
40920;BME280;26652;50.280;19.026;2023-08-31T12:25:50;63883.53;;;-141.89;100.00
40920;BME280;26652;50.280;19.026;2023-08-31T12:32:05;63883.53;;;-141.89;100.00
40920;BME280;26652;50.280;19.026;2023-08-31T12:35:09;63883.53;;;-141.89;100.00
40920;BME280;26652;50.280;19.026;2023-08-31T12:38:13;63883.53;;;-141.89;100.00
40920;BME280;26652;50.280;19.026;2023-08-31T12:41:16;63883.53;;;-141.89;100.00
40920;BME280;26652;50.280;19.026;2023-08-31T12:44:15;63883.53;;;-141.89;100.00
40920;BME280;26652;50.280;19.026;2023-08-31T12:47:14;63883.53;;;-141.89;100.00
40920;BME280;26652;50.280;19.026;2023-08-31T12:50:28;63883.53;;;-141.89;100.00
40920;BME280;26652;50.280;19.026;2023-08-31T12:53:42;63883.53;;;-141.89;100.00
40920;BME280;26652;50.280;19.026;2023-08-31T12:57:00;63883.53;;;-141.89;100.00
40920;BME280;26652;50.280;19.026;2023-08-31T13:00:22;63883.53;;;-141.89;100.00
40920;BME280;26652;50.280;19.026;2023-08-31T13:03:32;63883.53;;;-141.89;100.00
40920;BME280;26652;50.280;19.026;2023-08-31T13:10:34;63883.53;;;-141.89;100.00
40920;BME280;26652;50.280;19.026;2023-08-31T13:16:59;63883.53;;;-141.89;100.00
40920;BME280;26652;50.280;19.026;2023-08-31T13:19:58;63883.53;;;-141.89;100.00
40920;BME280;26652;50.280;19.026;2023-08-31T13:23:21;63883.53;;;-141.89;100.00
40920;BME280;26652;50.280;19.026;2023-08-31T13:26:19;63883.53;;;-141.89;100.00
40920;BME280;26652;50.280;19.026;2023-08-31T13:29:25;63883.53;;;-141.89;100.00
40920;BME280;26652;50.280;19.026;2023-08-31T13:32:26;63883.53;;;-141.89;100.00
40920;BME280;26652;50.280;19.026;2023-08-31T13:35:27;63883.53;;;-141.89;100.00
40920;BME280;26652;50.280;19.026;2023-08-31T13:38:28;63883.53;;;-141.89;100.00
40920;BME280;26652;50.280;19.026;2023-08-31T13:41:49;63883.53;;;-141.89;100.00
40920;BME280;26652;50.280;19.026;2023-08-31T13:44:48;63883.53;;;-141.89;100.00
40920;BME280;26652;50.280;19.026;2023-08-31T13:47:47;63883.53;;;-141.89;100.00
40920;BME280;26652;50.280;19.026;2023-08-31T13:50:48;63883.53;;;-141.89;100.00
40920;BME280;26652;50.280;19.026;2023-08-31T13:53:53;63883.53;;;-141.89;100.00
40920;BME280;26652;50.280;19.026;2023-08-31T13:56:52;63883.53;;;-141.89;100.00
40920;BME280;26652;50.280;19.026;2023-08-31T13:59:51;63883.53;;;-141.89;100.00
40920;BME280;26652;50.280;19.026;2023-08-31T14:02:52;63883.53;;;-141.89;100.00
40920;BME280;26652;50.280;19.026;2023-08-31T14:05:51;63883.53;;;-141.89;100.00
40920;BME280;26652;50.280;19.026;2023-08-31T14:08:56;63883.53;;;-141.89;100.00
40920;BME280;26652;50.280;19.026;2023-08-31T14:11:55;63883.53;;;-141.89;100.00
40920;BME280;26652;50.280;19.026;2023-08-31T14:15:02;63883.53;;;-141.89;100.00
40920;BME280;26652;50.280;19.026;2023-08-31T14:22:33;63883.53;;;-141.89;100.00
40920;BME280;26652;50.280;19.026;2023-08-31T14:26:37;63883.53;;;-141.89;100.00
40920;BME280;26652;50.280;19.026;2023-08-31T14:30:07;63883.53;;;-141.89;100.00
40920;BME280;26652;50.280;19.026;2023-08-31T14:37:52;63883.53;;;-141.89;100.00
40920;BME280;26652;50.280;19.026;2023-08-31T14:44:42;63883.53;;;-141.89;100.00
40920;BME280;26652;50.280;19.026;2023-08-31T14:48:34;63883.53;;;-141.89;100.00
40920;BME280;26652;50.280;19.026;2023-08-31T14:55:56;63883.53;;;-141.89;100.00
40920;BME280;26652;50.280;19.026;2023-08-31T14:59:37;63883.53;;;-141.89;100.00
40920;BME280;26652;50.280;19.026;2023-08-31T15:12:10;63883.53;;;-141.89;100.00
40920;BME280;26652;50.280;19.026;2023-08-31T15:34:02;97949.50;;;20.99;62.41
40920;BME280;26652;50.280;19.026;2023-08-31T15:36:10;97945.09;;;21.04;62.33
40920;BME280;26652;50.280;19.026;2023-08-31T15:38:24;97964.25;;;21.03;61.97
40920;BME280;26652;50.280;19.026;2023-08-31T15:40:26;97977.47;;;21.07;63.00
40920;BME280;26652;50.280;19.026;2023-08-31T15:42:27;97955.16;;;20.90;62.77
40920;BME280;26652;50.280;19.026;2023-08-31T15:44:28;97969.16;;;21.00;63.39
40920;BME280;26652;50.280;19.026;2023-08-31T15:46:54;97983.44;;;21.17;62.46
40920;BME280;26652;50.280;19.026;2023-08-31T15:49:01;97965.81;;;21.19;63.56
40920;BME280;26652;50.280;19.026;2023-08-31T15:51:05;97960.09;;;20.97;61.95
40920;BME280;26652;50.280;19.026;2023-08-31T15:53:19;97960.31;;;20.80;63.30
40920;BME280;26652;50.280;19.026;2023-08-31T15:55:32;97986.47;;;20.94;63.19
40920;BME280;26652;50.280;19.026;2023-08-31T15:57:58;97988.56;;;21.02;63.99
40920;BME280;26652;50.280;19.026;2023-08-31T16:00:08;97971.47;;;20.91;64.34
40920;BME280;26652;50.280;19.026;2023-08-31T16:02:13;97957.47;;;20.87;63.76
40920;BME280;26652;50.280;19.026;2023-08-31T16:04:17;97969.38;;;20.78;63.91
40920;BME280;26652;50.280;19.026;2023-08-31T16:06:22;97987.00;;;20.91;63.82
40920;BME280;26652;50.280;19.026;2023-08-31T16:08:23;97982.84;;;20.75;64.46
40920;BME280;26652;50.280;19.026;2023-08-31T16:10:37;97982.31;;;20.78;64.65
40920;BME280;26652;50.280;19.026;2023-08-31T16:12:47;97949.94;;;20.60;64.63
40920;BME280;26652;50.280;19.026;2023-08-31T16:14:52;97979.47;;;20.74;64.32
40920;BME280;26652;50.280;19.026;2023-08-31T16:17:08;97960.47;;;20.43;64.58
40920;BME280;26652;50.280;19.026;2023-08-31T16:19:32;97996.25;;;20.67;65.28
40920;BME280;26652;50.280;19.026;2023-08-31T16:21:42;97961.53;;;20.52;65.37
40920;BME280;26652;50.280;19.026;2023-08-31T16:23:49;97992.63;;;20.68;65.41
40920;BME280;26652;50.280;19.026;2023-08-31T16:26:06;97997.56;;;20.69;67.63
40920;BME280;26652;50.280;19.026;2023-08-31T16:28:16;97982.03;;;20.64;68.14
40920;BME280;26652;50.280;19.026;2023-08-31T16:30:24;97976.31;;;20.62;68.74
40920;BME280;26652;50.280;19.026;2023-08-31T16:32:30;98001.72;;;20.75;69.45
40920;BME280;26652;50.280;19.026;2023-08-31T16:34:36;97994.16;;;20.59;71.67
40920;BME280;26652;50.280;19.026;2023-08-31T16:36:43;97991.03;;;20.56;72.52
40920;BME280;26652;50.280;19.026;2023-08-31T16:41:35;97996.31;;;20.30;77.04
40920;BME280;26652;50.280;19.026;2023-08-31T16:54:12;97958.91;;;19.95;75.81
40920;BME280;26652;50.280;19.026;2023-08-31T16:56:20;97985.34;;;20.12;78.38
40920;BME280;26652;50.280;19.026;2023-08-31T16:58:21;97960.34;;;19.76;77.35
40920;BME280;26652;50.280;19.026;2023-08-31T17:00:27;97989.00;;;19.79;79.05
40920;BME280;26652;50.280;19.026;2023-08-31T17:02:33;97962.94;;;19.81;78.43
40920;BME280;26652;50.280;19.026;2023-08-31T17:04:38;98006.88;;;19.86;79.96
40920;BME280;26652;50.280;19.026;2023-08-31T17:06:38;97974.69;;;19.62;78.64
40920;BME280;26652;50.280;19.026;2023-08-31T17:08:40;98002.47;;;19.81;78.72
40920;BME280;26652;50.280;19.026;2023-08-31T17:10:41;97986.91;;;19.76;78.08
40920;BME280;26652;50.280;19.026;2023-08-31T17:12:46;98013.03;;;19.80;78.69
40920;BME280;26652;50.280;19.026;2023-08-31T17:14:46;97975.84;;;19.49;78.86
40920;BME280;26652;50.280;19.026;2023-08-31T17:16:49;97973.00;;;19.45;79.38
40920;BME280;26652;50.280;19.026;2023-08-31T17:18:50;97977.13;;;19.19;80.07
40920;BME280;26652;50.280;19.026;2023-08-31T17:20:51;98011.19;;;19.43;80.52
40920;BME280;26652;50.280;19.026;2023-08-31T17:22:51;98014.28;;;19.45;82.51